Time;durP1;ratioP1;P1;durP2;ratioP2;P2;SDS_P1;SDS_P2;PMS_P1;PMS_P2;Temp;Humidity;BMP_temperature;BMP_pressure;BME280_temperature;BME280_humidity;BME280_pressure;Samples;Min_cycle;Max_cycle;Signal;HPM_P1;HPM_P2
2023/11/05 00:01:41;;;;;;;0.00;0.00;;;;;;;9.08;100.00;96935.84;5054474;28;20048;-38
2023/11/05 00:04:07;;;;;;;0.00;0.00;;;;;;;9.13;100.00;96938.53;5053678;28;20049;-38
2023/11/05 00:06:33;;;;;;;0.00;0.00;;;;;;;9.15;100.00;96942.56;5056197;28;20053;-38
2023/11/05 00:08:58;;;;;;;0.00;0.00;;;;;;;9.15;100.00;96931.03;5055322;28;20052;-37
2023/11/05 00:11:24;;;;;;;0.00;0.00;;;;;;;9.12;100.00;96927.00;5056641;28;20644;-37
2023/11/05 00:13:49;;;;;;;0.00;0.00;;;;;;;9.15;100.00;96925.66;5054704;28;20048;-37
2023/11/05 00:16:15;;;;;;;0.00;0.00;;;;;;;9.16;100.00;96914.69;5052354;28;20037;-37
2023/11/05 00:18:41;;;;;;;0.00;0.00;;;;;;;9.13;100.00;96917.09;5053847;28;20025;-37
2023/11/05 00:21:06;;;;;;;0.00;0.00;;;;;;;9.16;100.00;96912.00;5055942;28;20073;-37
2023/11/05 00:23:32;;;;;;;0.00;0.00;;;;;;;9.08;100.00;96914.41;5060907;28;20036;-37
2023/11/05 00:25:57;;;;;;;0.00;0.00;;;;;;;9.06;100.00;96900.44;5074690;28;20060;-35
2023/11/05 00:28:22;;;;;;;0.00;0.00;;;;;;;9.01;100.00;96910.13;5075572;28;20028;-36
2023/11/05 00:30:48;;;;;;;0.00;0.00;;;;;;;9.06;100.00;96908.50;5074218;28;20107;-36
2023/11/05 00:33:13;;;;;;;0.00;0.00;;;;;;;9.05;100.00;96896.16;5074395;28;20039;-37
2023/11/05 00:35:38;;;;;;;0.00;0.00;;;;;;;9.00;100.00;96900.47;5073427;28;20470;-38
2023/11/05 00:38:04;;;;;;;0.00;0.00;;;;;;;9.00;100.00;96903.16;5062285;28;20025;-37
2023/11/05 00:40:29;;;;;;;0.00;0.00;;;;;;;9.00;100.00;96897.78;5059189;28;20024;-37
2023/11/05 00:42:55;;;;;;;0.00;0.00;;;;;;;9.04;100.00;96891.88;5055875;28;20025;-36
2023/11/05 00:45:21;;;;;;;0.00;0.00;;;;;;;9.01;100.00;96891.34;5065284;28;20100;-36
2023/11/05 00:47:46;;;;;;;0.00;0.00;;;;;;;9.01;100.00;96899.38;5069978;28;20485;-36
2023/11/05 00:50:11;;;;;;;0.00;0.00;;;;;;;9.01;100.00;96902.06;5053599;28;20033;-38
2023/11/05 00:52:37;;;;;;;0.00;0.00;;;;;;;9.11;100.00;96903.13;5070071;28;20051;-37
2023/11/05 00:55:02;;;;;;;0.00;0.00;;;;;;;9.13;100.00;96901.00;5063771;28;20083;-38
2023/11/05 00:57:28;;;;;;;0.00;0.00;;;;;;;9.15;100.00;96893.47;5053574;28;20033;-38
2023/11/05 00:59:53;;;;;;;0.00;0.00;;;;;;;9.13;100.00;96890.25;5053054;28;20198;-38
2023/11/05 01:02:18;;;;;;;0.00;0.00;;;;;;;9.15;100.00;96898.84;5051876;28;20032;-38
2023/11/05 01:04:44;;;;;;;0.00;0.00;;;;;;;9.19;100.00;96899.94;5052490;28;20120;-38
2023/11/05 01:07:09;;;;;;;0.00;0.00;;;;;;;9.28;100.00;96902.88;5055360;28;20108;-39
2023/11/05 01:09:35;;;;;;;0.00;0.00;;;;;;;9.27;100.00;96894.03;5055993;28;20116;-38
2023/11/05 01:12:00;;;;;;;0.00;0.00;;;;;;;9.33;100.00;96900.97;5054936;28;20100;-37
2023/11/05 01:14:26;;;;;;;0.00;0.00;;;;;;;9.40;100.00;96896.16;5056755;28;20399;-38
2023/11/05 01:16:51;;;;;;;0.00;0.00;;;;;;;9.33;100.00;96895.63;5072050;28;20037;-37
2023/11/05 01:19:16;;;;;;;0.00;0.00;;;;;;;9.38;100.00;96886.75;5074309;28;20020;-38
2023/11/05 01:21:42;;;;;;;0.00;0.00;;;;;;;9.40;100.00;96879.22;5073663;28;20036;-38
2023/11/05 01:24:08;;;;;;;0.00;0.00;;;;;;;9.45;100.00;96879.22;5074102;28;20105;-38
2023/11/05 01:26:33;;;;;;;0.00;0.00;;;;;;;9.47;100.00;96881.63;5054612;28;20025;-38
2023/11/05 01:29:00;;;;;;;0.00;0.00;;;;;;;9.49;100.00;96868.75;5052369;28;20104;-38
2023/11/05 01:31:25;;;;;;;0.00;0.00;;;;;;;9.54;100.00;96874.09;5052480;28;20099;-37
2023/11/05 01:33:51;;;;;;;0.00;0.00;;;;;;;9.53;100.00;96867.13;5051917;28;20036;-37
2023/11/05 01:36:16;;;;;;;0.00;0.00;;;;;;;9.48;100.00;96869.81;5070145;28;20090;-38
2023/11/05 01:38:42;;;;;;;0.00;0.00;;;;;;;9.53;100.00;96877.84;5072208;28;20028;-38
2023/11/05 01:41:08;;;;;;;0.00;0.00;;;;;;;9.54;100.00;96871.44;5071953;28;20174;-37
2023/11/05 01:43:33;;;;;;;0.00;0.00;;;;;;;9.60;100.00;96873.00;5071579;28;20538;-37
2023/11/05 01:45:59;;;;;;;0.00;0.00;;;;;;;9.51;100.00;96863.94;5069088;28;20367;-38
2023/11/05 01:48:24;;;;;;;0.00;0.00;;;;;;;9.55;100.00;96873.03;5070228;28;20028;-38
2023/11/05 01:50:49;;;;;;;0.00;0.00;;;;;;;9.55;100.00;96870.34;5072092;28;20087;-38
2023/11/05 01:53:16;;;;;;;0.00;0.00;;;;;;;9.52;100.00;96871.69;5070823;28;20478;-38
2023/11/05 01:55:41;;;;;;;0.00;0.00;;;;;;;9.50;100.00;96871.16;5069624;28;20024;-37
2023/11/05 01:58:07;;;;;;;0.00;0.00;;;;;;;9.51;100.00;96874.66;5070989;28;20455;-37
2023/11/05 02:00:33;;;;;;;0.00;0.00;;;;;;;9.52;100.00;96877.06;5071095;28;20024;-37
2023/11/05 02:02:58;;;;;;;0.00;0.00;;;;;;;9.51;100.00;96872.78;5071915;28;20374;-38
2023/11/05 02:05:24;;;;;;;0.00;0.00;;;;;;;9.50;100.00;96873.84;5041543;28;20044;-37
2023/11/05 02:07:49;;;;;;;0.00;0.00;;;;;;;9.50;100.00;96878.41;5044126;28;20383;-37
2023/11/05 02:10:15;;;;;;;0.00;0.00;;;;;;;9.54;100.00;96864.16;5043599;28;20026;-37
2023/11/05 02:12:55;;;;;;;0.00;0.00;;;;;;;9.52;100.00;96865.53;5033533;28;20132;-37
2023/11/05 02:15:21;;;;;;;0.00;0.00;;;;;;;9.50;100.00;96867.66;5051487;28;20460;-37
2023/11/05 02:17:46;;;;;;;0.00;0.00;;;;;;;9.49;100.00;96863.38;5047157;28;20088;-36
2023/11/05 02:20:12;;;;;;;0.00;0.00;;;;;;;9.52;100.00;96870.88;5044374;28;20025;-39
2023/11/05 02:22:37;;;;;;;0.00;0.00;;;;;;;9.57;100.00;96868.19;5052404;28;20040;-37
2023/11/05 02:25:03;;;;;;;0.00;0.00;;;;;;;9.58;100.00;96875.16;5049848;28;20466;-37
2023/11/05 02:27:28;;;;;;;0.00;0.00;;;;;;;9.56;100.00;96870.06;5049694;28;20029;-37
2023/11/05 02:29:54;;;;;;;0.00;0.00;;;;;;;9.52;100.00;96870.88;5049035;28;20025;-37
2023/11/05 02:32:19;;;;;;;0.00;0.00;;;;;;;9.57;100.00;96873.56;5051574;28;20111;-38
2023/11/05 02:34:47;;;;;;;0.00;0.00;;;;;;;9.60;100.00;96865.75;5032611;28;20044;-36
2023/11/05 02:37:12;;;;;;;0.00;0.00;;;;;;;9.62;100.00;96863.59;5048782;28;20040;-38
2023/11/05 02:39:38;;;;;;;0.00;0.00;;;;;;;9.57;100.00;96868.19;5038213;28;20468;-39
2023/11/05 02:42:03;;;;;;;0.00;0.00;;;;;;;9.59;100.00;96866.03;5035018;28;20036;-38
2023/11/05 02:44:29;;;;;;;0.00;0.00;;;;;;;9.52;100.00;96871.69;5036590;28;20036;-37
2023/11/05 02:46:54;;;;;;;0.00;0.00;;;;;;;9.50;100.00;96871.16;5035542;28;20060;-37
2023/11/05 02:49:20;;;;;;;0.00;0.00;;;;;;;9.51;100.00;96870.09;5039324;28;20038;-37
2023/11/05 02:51:45;;;;;;;0.00;0.00;;;;;;;9.52;100.00;96873.56;5035589;28;20097;-38
2023/11/05 02:54:11;;;;;;;0.00;0.00;;;;;;;9.48;100.00;96869.81;5038895;28;20025;-37
2023/11/05 02:56:36;;;;;;;0.00;0.00;;;;;;;9.47;100.00;96873.59;5055427;28;20605;-37
2023/11/05 02:59:01;;;;;;;0.00;0.00;;;;;;;9.47;100.00;96873.59;5054038;28;20459;-38
2023/11/05 03:01:30;;;;;;;0.00;0.00;;;;;;;9.50;100.00;96867.66;5055392;28;20072;-38
2023/11/05 03:03:55;;;;;;;0.00;0.00;;;;;;;9.55;100.00;96864.97;5062507;28;20052;-37
2023/11/05 03:06:21;;;;;;;0.00;0.00;;;;;;;9.58;100.00;96864.41;5074876;28;20065;-37
2023/11/05 03:08:47;;;;;;;0.00;0.00;;;;;;;9.54;100.00;96874.09;5064265;28;20500;-38
2023/11/05 03:11:12;;;;;;;0.00;0.00;;;;;;;9.56;100.00;96869.28;5055465;28;20037;-38
2023/11/05 03:13:38;;;;;;;0.00;0.00;;;;;;;9.54;100.00;96872.22;5055743;28;20043;-36
2023/11/05 03:16:08;;;;;;;0.00;0.00;;;;;;;9.56;100.00;96864.72;5055701;28;20017;-38
2023/11/05 03:18:33;;;;;;;0.00;0.00;;;;;;;9.54;100.00;96858.00;5064093;28;20086;-38
2023/11/05 03:20:58;;;;;;;0.00;0.00;;;;;;;9.56;100.00;96861.22;5067198;28;20041;-38
2023/11/05 03:23:24;;;;;;;0.00;0.00;;;;;;;9.52;100.00;96860.16;5054795;28;20029;-37
2023/11/05 03:25:49;;;;;;;0.00;0.00;;;;;;;9.48;100.00;96856.38;5068989;28;20024;-38
2023/11/05 03:28:14;;;;;;;0.00;0.00;;;;;;;9.43;100.00;96863.41;5062896;28;20024;-37
2023/11/05 03:30:40;;;;;;;0.00;0.00;;;;;;;9.47;100.00;96868.22;5066629;28;20486;-37
2023/11/05 03:33:05;;;;;;;0.00;0.00;;;;;;;9.48;100.00;96864.44;5059062;28;20495;-37
2023/11/05 03:35:31;;;;;;;0.00;0.00;;;;;;;9.44;100.00;96865.00;5065328;28;20028;-39
2023/11/05 03:37:56;;;;;;;0.00;0.00;;;;;;;9.42;100.00;96872.50;5059425;28;20553;-38
2023/11/05 03:40:22;;;;;;;0.00;0.00;;;;;;;9.41;100.00;96870.09;5066986;28;20060;-38
2023/11/05 03:42:47;;;;;;;0.00;0.00;;;;;;;9.44;100.00;96873.03;5074306;28;20056;-38
2023/11/05 03:45:12;;;;;;;0.00;0.00;;;;;;;9.48;100.00;96883.22;5074738;28;20028;-37
2023/11/05 03:47:38;;;;;;;0.00;0.00;;;;;;;9.41;100.00;96876.28;5061556;28;20021;-38
2023/11/05 03:50:03;;;;;;;0.00;0.00;;;;;;;9.39;100.00;96881.09;5063461;28;20108;-37
2023/11/05 03:52:28;;;;;;;0.00;0.00;;;;;;;9.33;100.00;96884.88;5073742;28;20035;-38
2023/11/05 03:54:55;;;;;;;0.00;0.00;;;;;;;9.34;100.00;96877.63;5058007;28;20029;-37
2023/11/05 03:57:20;;;;;;;0.00;0.00;;;;;;;9.35;100.00;96888.09;5070380;28;20051;-37
2023/11/05 03:59:46;;;;;;;0.00;0.00;;;;;;;9.33;100.00;96887.56;5063003;28;20025;-37
2023/11/05 04:02:11;;;;;;;0.00;0.00;;;;;;;9.30;100.00;96893.47;5063696;28;20055;-39
2023/11/05 04:04:36;;;;;;;0.00;0.00;;;;;;;9.35;100.00;96882.72;5079321;28;20045;-38
2023/11/05 04:07:05;;;;;;;0.00;0.00;;;;;;;9.38;100.00;96887.56;5062757;28;20114;-38
2023/11/05 04:09:30;;;;;;;0.00;0.00;;;;;;;9.44;100.00;96886.47;5062891;28;20032;-38
2023/11/05 04:11:56;;;;;;;0.00;0.00;;;;;;;9.40;100.00;96885.41;5064262;28;20033;-38
2023/11/05 04:14:21;;;;;;;0.00;0.00;;;;;;;9.38;100.00;96886.75;5064422;28;20634;-37
2023/11/05 04:16:46;;;;;;;0.00;0.00;;;;;;;9.35;100.00;96898.03;5077861;28;20040;-38
2023/11/05 04:19:14;;;;;;;0.00;0.00;;;;;;;9.35;100.00;96896.16;5062351;28;20037;-37
2023/11/05 04:21:39;;;;;;;0.00;0.00;;;;;;;9.33;100.00;96897.50;5061339;28;20044;-38
2023/11/05 04:24:05;;;;;;;0.00;0.00;;;;;;;9.38;100.00;96898.28;5056355;28;20033;-38
2023/11/05 04:26:30;;;;;;;0.00;0.00;;;;;;;9.41;100.00;96903.09;5053500;28;20021;-39
2023/11/05 04:28:55;;;;;;;0.00;0.00;;;;;;;9.39;100.00;96899.09;5053774;28;20028;-38
2023/11/05 04:31:21;;;;;;;0.00;0.00;;;;;;;9.42;100.00;96901.22;5053868;28;20108;-37
2023/11/05 04:33:46;;;;;;;0.00;0.00;;;;;;;9.45;100.00;96906.03;5053694;28;20136;-37
2023/11/05 04:36:12;;;;;;;0.00;0.00;;;;;;;9.41;100.00;96905.78;5065985;28;20059;-37
2023/11/05 04:38:39;;;;;;;0.00;0.00;;;;;;;9.42;100.00;96904.72;5056481;28;20061;-38
2023/11/05 04:41:04;;;;;;;0.00;0.00;;;;;;;9.48;100.00;96902.00;5059724;28;20025;-39
2023/11/05 04:43:30;;;;;;;0.00;0.00;;;;;;;9.49;100.00;96903.66;5072149;28;20047;-38
2023/11/05 04:45:58;;;;;;;0.00;0.00;;;;;;;9.48;100.00;96905.53;5073670;28;20063;-38
2023/11/05 04:48:23;;;;;;;0.00;0.00;;;;;;;9.45;100.00;96906.03;5076966;28;20708;-38
2023/11/05 04:50:48;;;;;;;0.00;0.00;;;;;;;9.50;100.00;96905.25;5068330;28;20033;-38
2023/11/05 04:53:14;;;;;;;0.00;0.00;;;;;;;9.55;100.00;96903.34;5070493;28;20024;-37
2023/11/05 04:55:39;;;;;;;0.00;0.00;;;;;;;9.54;100.00;96907.13;5069496;28;20051;-38
2023/11/05 04:58:04;;;;;;;0.00;0.00;;;;;;;9.57;100.00;96906.56;5080607;28;20028;-38
2023/11/05 05:00:30;;;;;;;0.00;0.00;;;;;;;9.58;100.00;96912.72;5091822;28;20344;-37
2023/11/05 05:02:55;;;;;;;0.00;0.00;;;;;;;9.54;100.00;96911.69;5073990;28;20154;-36
2023/11/05 05:05:20;;;;;;;0.00;0.00;;;;;;;9.57;100.00;96906.56;5066881;28;20127;-36
2023/11/05 05:07:46;;;;;;;0.00;0.00;;;;;;;9.53;100.00;96916.25;5069558;28;20037;-35
2023/11/05 05:10:11;;;;;;;0.00;0.00;;;;;;;9.58;100.00;96915.41;5054883;28;20035;-37
2023/11/05 05:12:37;;;;;;;0.00;0.00;;;;;;;9.57;100.00;96919.19;5054053;28;20029;-36
2023/11/05 05:15:05;;;;;;;0.00;0.00;;;;;;;9.58;100.00;96918.09;5060941;28;20035;-38
2023/11/05 05:17:30;;;;;;;0.00;0.00;;;;;;;9.60;100.00;96921.31;5062590;28;20060;-38
2023/11/05 05:19:56;;;;;;;0.00;0.00;;;;;;;9.60;100.00;96915.97;5078060;28;20433;-38
2023/11/05 05:22:22;;;;;;;0.00;0.00;;;;;;;9.62;100.00;96921.88;5060049;28;20056;-37
2023/11/05 05:24:47;;;;;;;0.00;0.00;;;;;;;9.61;100.00;96929.13;5068185;28;20054;-36
2023/11/05 05:27:12;;;;;;;0.00;0.00;;;;;;;9.61;100.00;96925.59;5077451;28;20055;-38
2023/11/05 05:29:38;;;;;;;0.00;0.00;;;;;;;9.59;100.00;96925.09;5075512;28;20043;-36
2023/11/05 05:32:04;;;;;;;0.00;0.00;;;;;;;9.63;100.00;96921.56;5071874;28;20036;-38
2023/11/05 05:34:30;;;;;;;0.00;0.00;;;;;;;9.60;100.00;96929.38;5062589;28;20037;-39
2023/11/05 05:36:56;;;;;;;0.00;0.00;;;;;;;9.62;100.00;96917.28;5058603;28;20104;-38
2023/11/05 05:39:22;;;;;;;0.00;0.00;;;;;;;9.64;100.00;96927.78;5038671;28;20603;-38
2023/11/05 05:41:47;;;;;;;0.00;0.00;;;;;;;9.65;100.00;96932.06;5055580;28;20083;-38
2023/11/05 05:44:12;;;;;;;0.00;0.00;;;;;;;9.65;100.00;96932.84;5052856;28;20032;-37
2023/11/05 05:46:38;;;;;;;0.00;0.00;;;;;;;9.65;100.00;96929.38;5056519;28;20100;-36
2023/11/05 05:49:03;;;;;;;0.00;0.00;;;;;;;9.71;100.00;96928.28;5051946;28;20064;-38
2023/11/05 05:51:28;;;;;;;0.00;0.00;;;;;;;9.73;100.00;96930.69;5050955;28;20089;-38
2023/11/05 05:53:55;;;;;;;0.00;0.00;;;;;;;9.71;100.00;96933.66;5052076;28;20059;-37
2023/11/05 05:56:21;;;;;;;0.00;0.00;;;;;;;9.73;100.00;96931.50;5061163;28;20098;-38
2023/11/05 05:58:47;;;;;;;0.00;0.00;;;;;;;9.74;100.00;96932.28;5072028;28;20481;-37
2023/11/05 06:01:12;;;;;;;0.00;0.00;;;;;;;9.73;100.00;96931.50;5070320;28;20059;-38
2023/11/05 06:03:37;;;;;;;0.00;0.00;;;;;;;9.71;100.00;96933.66;5068176;28;20052;-38
2023/11/05 06:06:03;;;;;;;0.00;0.00;;;;;;;9.72;100.00;96946.00;5064685;28;20028;-38
2023/11/05 06:08:28;;;;;;;0.00;0.00;;;;;;;9.68;100.00;96945.72;5061710;28;20518;-38
2023/11/05 06:10:54;;;;;;;0.00;0.00;;;;;;;9.72;100.00;96945.22;5064406;28;20027;-38
2023/11/05 06:13:20;;;;;;;0.00;0.00;;;;;;;9.73;100.00;96942.25;5068184;28;20029;-38
2023/11/05 06:15:46;;;;;;;0.00;0.00;;;;;;;9.67;100.00;96954.06;5058190;28;20139;-37
2023/11/05 06:18:11;;;;;;;0.00;0.00;;;;;;;9.66;100.00;96952.44;5062816;28;20097;-39
2023/11/05 06:20:37;;;;;;;0.00;0.00;;;;;;;9.69;100.00;96951.94;5064743;28;20072;-38
2023/11/05 06:23:04;;;;;;;0.00;0.00;;;;;;;9.67;100.00;96964.81;5070738;28;20077;-38
2023/11/05 06:25:29;;;;;;;0.00;0.00;;;;;;;9.70;100.00;96960.78;5079113;28;20047;-39
2023/11/05 06:27:54;;;;;;;0.00;0.00;;;;;;;9.66;100.00;96968.56;5074333;28;20029;-37
2023/11/05 06:30:20;;;;;;;0.00;0.00;;;;;;;9.70;100.00;96971.53;5062340;28;20115;-37
2023/11/05 06:32:46;;;;;;;0.00;0.00;;;;;;;9.70;100.00;96972.31;5073414;28;20103;-39
2023/11/05 06:35:11;;;;;;;0.00;0.00;;;;;;;9.71;100.00;96981.97;5071829;28;20025;-39
2023/11/05 06:37:36;;;;;;;0.00;0.00;;;;;;;9.72;100.00;96983.59;5065466;28;20607;-38
2023/11/05 06:40:03;;;;;;;0.00;0.00;;;;;;;9.68;100.00;96988.69;5056323;28;20061;-38
2023/11/05 06:42:29;;;;;;;0.00;0.00;;;;;;;9.70;100.00;96993.81;5072713;28;20060;-39
2023/11/05 06:44:54;;;;;;;0.00;0.00;;;;;;;9.65;100.00;96991.13;5076844;28;20066;-39
2023/11/05 06:47:19;;;;;;;0.00;0.00;;;;;;;9.67;100.00;97005.09;5075032;28;20039;-39
2023/11/05 06:49:45;;;;;;;0.00;0.00;;;;;;;9.72;100.00;97002.41;5077823;28;20066;-39
2023/11/05 06:52:10;;;;;;;0.00;0.00;;;;;;;9.74;100.00;97019.03;5076787;28;20052;-37
2023/11/05 06:54:35;;;;;;;0.00;0.00;;;;;;;9.70;100.00;97007.22;5061812;28;20025;-37
2023/11/05 06:57:03;;;;;;;0.00;0.00;;;;;;;9.68;100.00;97014.72;5058337;28;20537;-39
2023/11/05 06:59:28;;;;;;;0.00;0.00;;;;;;;9.67;100.00;97018.50;5057540;28;20082;-37
2023/11/05 07:01:54;;;;;;;0.00;0.00;;;;;;;9.67;100.00;97023.88;5056289;28;20723;-37
2023/11/05 07:04:19;;;;;;;0.00;0.00;;;;;;;9.70;100.00;97026.03;5056152;28;20056;-37
2023/11/05 07:06:45;;;;;;;0.00;0.00;;;;;;;9.66;100.00;97028.44;5056575;28;20440;-39
2023/11/05 07:09:11;;;;;;;0.00;0.00;;;;;;;9.71;100.00;97030.31;5056723;28;20041;-37
2023/11/05 07:11:37;;;;;;;0.00;0.00;;;;;;;9.70;100.00;97039.44;5056348;28;20033;-37
2023/11/05 07:14:02;;;;;;;0.00;0.00;;;;;;;9.70;100.00;97044.81;5059726;28;20024;-36
2023/11/05 07:16:27;;;;;;;0.00;0.00;;;;;;;9.64;100.00;97040.53;5068094;28;20031;-37
2023/11/05 07:18:53;;;;;;;0.00;0.00;;;;;;;9.63;100.00;97046.94;5072066;28;20092;-37
2023/11/05 07:21:19;;;;;;;0.00;0.00;;;;;;;9.66;100.00;97054.47;5082563;28;20131;-37
2023/11/05 07:23:44;;;;;;;0.00;0.00;;;;;;;9.67;100.00;97062.25;5077145;28;20041;-38
2023/11/05 07:26:13;;;;;;;0.00;0.00;;;;;;;9.72;100.00;97063.34;5068279;28;20051;-38
2023/11/05 07:28:38;;;;;;;0.00;0.00;;;;;;;9.71;100.00;97069.78;5075318;28;20033;-38
2023/11/05 07:31:04;;;;;;;0.00;0.00;;;;;;;9.68;100.00;97071.91;5074888;28;20444;-36
2023/11/05 07:33:29;;;;;;;0.00;0.00;;;;;;;9.72;100.00;97074.88;5073853;28;20027;-38
2023/11/05 07:35:55;;;;;;;0.00;0.00;;;;;;;9.71;100.00;97078.63;5058648;28;20021;-38
2023/11/05 07:38:26;;;;;;;0.00;0.00;;;;;;;9.69;100.00;97080.81;5075102;28;20024;-38
2023/11/05 07:40:51;;;;;;;0.00;0.00;;;;;;;9.70;100.00;97097.72;5076647;28;20082;-38
2023/11/05 07:43:17;;;;;;;0.00;0.00;;;;;;;9.70;100.00;97090.47;5074822;28;20056;-37
2023/11/05 07:45:43;;;;;;;0.00;0.00;;;;;;;9.72;100.00;97096.38;5072796;28;20025;-37
2023/11/05 07:48:08;;;;;;;0.00;0.00;;;;;;;9.72;100.00;97101.75;5069326;28;20025;-39
2023/11/05 07:50:34;;;;;;;0.00;0.00;;;;;;;9.75;100.00;97101.19;5072223;28;20016;-39
2023/11/05 07:53:00;;;;;;;0.00;0.00;;;;;;;9.74;100.00;97099.59;5072857;28;20124;-39
2023/11/05 07:55:26;;;;;;;0.00;0.00;;;;;;;9.77;100.00;97107.13;5071223;28;20021;-39
2023/11/05 07:57:52;;;;;;;0.00;0.00;;;;;;;9.76;100.00;97107.38;5072655;28;20499;-36
2023/11/05 08:00:18;;;;;;;0.00;0.00;;;;;;;9.91;100.00;97109.25;5062165;28;20455;-39
2023/11/05 08:02:45;;;;;;;0.00;0.00;;;;;;;9.88;100.00;97116.78;5065814;28;20035;-37
2023/11/05 08:05:11;;;;;;;0.00;0.00;;;;;;;10.07;100.00;97124.28;5065134;28;20049;-40
2023/11/05 08:07:36;;;;;;;0.00;0.00;;;;;;;10.12;100.00;97116.22;5063298;28;20382;-38
2023/11/05 08:10:06;;;;;;;0.00;0.00;;;;;;;10.29;100.00;97116.78;5067886;28;20021;-37
2023/11/05 08:12:32;;;;;;;0.00;0.00;;;;;;;10.47;100.00;97117.28;5065183;28;20025;-38
2023/11/05 08:14:58;;;;;;;0.00;0.00;;;;;;;10.62;100.00;97122.63;5065848;28;20104;-36
2023/11/05 08:17:23;;;;;;;0.00;0.00;;;;;;;10.69;100.00;97115.06;5069069;28;20025;-39
2023/11/05 08:19:48;;;;;;;0.00;0.00;;;;;;;10.65;100.00;97114.00;5069306;28;20021;-38
2023/11/05 08:22:14;;;;;;;0.00;0.00;;;;;;;10.68;100.00;97112.66;5069345;28;20044;-38
2023/11/05 08:24:39;;;;;;;0.00;0.00;;;;;;;10.67;100.00;97117.22;5065969;28;20116;-38
2023/11/05 08:27:05;;;;;;;0.00;0.00;;;;;;;10.62;100.00;97114.53;5063469;28;20035;-39
2023/11/05 08:29:30;;;;;;;0.00;0.00;;;;;;;10.55;100.00;97119.41;5074863;28;20036;-39
2023/11/05 08:31:55;;;;;;;0.00;0.00;;;;;;;10.62;100.00;97119.94;5082096;28;20028;-39
2023/11/05 08:34:21;;;;;;;0.00;0.00;;;;;;;10.53;100.00;97121.56;5082459;28;20047;-39
2023/11/05 08:36:46;;;;;;;0.00;0.00;;;;;;;10.47;100.00;97128.81;5062836;28;20107;-38
2023/11/05 08:39:12;;;;;;;0.00;0.00;;;;;;;10.53;100.00;97133.13;5063374;28;20036;-38
2023/11/05 08:41:37;;;;;;;0.00;0.00;;;;;;;10.57;100.00;97146.81;5064037;28;20094;-38
2023/11/05 08:44:02;;;;;;;0.00;0.00;;;;;;;10.50;100.00;97149.78;5063827;28;20047;-39
2023/11/05 08:46:29;;;;;;;0.00;0.00;;;;;;;10.49;100.00;97160.81;5062638;28;20033;-39
2023/11/05 08:48:54;;;;;;;0.00;0.00;;;;;;;10.37;100.00;97168.34;5064108;28;20029;-39
2023/11/05 08:51:27;;;;;;;0.00;0.00;;;;;;;10.27;100.00;97187.97;5069788;28;20023;-38
2023/11/05 08:53:53;;;;;;;0.00;0.00;;;;;;;10.20;100.00;97185.53;5067771;28;20037;-39
2023/11/05 08:56:19;;;;;;;0.00;0.00;;;;;;;10.19;100.00;97197.38;5058454;28;20028;-38
2023/11/05 08:58:44;;;;;;;0.00;0.00;;;;;;;10.19;100.00;97207.31;5057922;28;20416;-39
2023/11/05 09:01:10;;;;;;;0.00;0.00;;;;;;;10.25;100.00;97217.78;5062080;28;20028;-37
2023/11/05 09:03:35;;;;;;;0.00;0.00;;;;;;;10.26;100.00;97214.03;5074539;28;20102;-37
2023/11/05 09:06:02;;;;;;;0.00;0.00;;;;;;;10.17;100.00;97225.59;5061182;28;20044;-36
2023/11/05 09:08:29;;;;;;;0.00;0.00;;;;;;;10.17;100.00;97226.41;5071366;28;20114;-42
2023/11/05 09:10:54;;;;;;;0.00;0.00;;;;;;;10.21;100.00;97232.81;5063231;28;20518;-41
2023/11/05 09:13:19;;;;;;;0.00;0.00;;;;;;;10.21;100.00;97234.72;5071077;28;20044;-42
2023/11/05 09:15:49;;;;;;;0.00;0.00;;;;;;;10.23;100.00;97241.44;5070285;28;20546;-43
2023/11/05 09:18:16;;;;;;;0.00;0.00;;;;;;;10.21;100.00;97254.31;5061723;28;20059;-43
2023/11/05 09:20:42;;;;;;;0.00;0.00;;;;;;;10.15;100.00;97260.78;5068336;28;20021;-44
2023/11/05 09:23:08;;;;;;;0.00;0.00;;;;;;;10.16;100.00;97273.13;5069424;28;20039;-45
2023/11/05 09:25:34;;;;;;;0.00;0.00;;;;;;;10.16;100.00;97283.06;5067126;28;20044;-47
2023/11/05 09:28:00;;;;;;;0.00;0.00;;;;;;;10.18;100.00;97297.84;5051044;28;20116;-46
2023/11/05 09:30:25;;;;;;;0.00;0.00;;;;;;;10.23;100.00;97311.31;5051725;28;20458;-46
2023/11/05 09:32:50;;;;;;;0.00;0.00;;;;;;;10.28;100.00;97324.78;5051802;28;20043;-45
2023/11/05 09:35:17;;;;;;;0.00;0.00;;;;;;;10.30;100.00;97333.41;5050441;28;20060;-46
2023/11/05 09:37:43;;;;;;;0.00;0.00;;;;;;;10.37;100.00;97346.56;5052171;28;20103;-44
2023/11/05 09:40:14;;;;;;;0.00;0.00;;;;;;;10.36;100.00;97362.97;5061448;28;20032;-43
2023/11/05 09:43:01;;;;;;;0.00;0.00;;;;;;;10.37;100.00;97369.94;5064037;28;20036;-44
2023/11/05 09:45:33;;;;;;;0.00;0.00;;;;;;;10.38;100.00;97376.97;5053647;28;20787;-42
2023/11/05 09:48:01;;;;;;;0.00;0.00;;;;;;;10.37;100.00;97383.41;5060461;28;20025;-41
2023/11/05 09:50:27;;;;;;;0.00;0.00;;;;;;;10.39;100.00;97378.56;5054054;28;20021;-42
2023/11/05 09:52:52;;;;;;;0.00;0.00;;;;;;;10.44;100.00;97392.81;5053448;28;20305;-42
2023/11/05 09:55:18;;;;;;;0.00;0.00;;;;;;;10.55;100.00;97405.19;5072070;28;20032;-42
2023/11/05 09:57:44;;;;;;;0.00;0.00;;;;;;;10.65;100.00;97407.13;5072430;28;20459;-40
2023/11/05 10:00:11;;;;;;;0.00;0.00;;;;;;;10.81;100.00;97423.28;5055254;28;20051;-42
2023/11/05 10:02:53;;;;;;;0.00;0.00;;;;;;;10.80;100.00;97425.16;5061683;28;20067;-41
2023/11/05 10:05:18;;;;;;;0.00;0.00;;;;;;;10.87;100.00;97432.97;5072557;28;20048;-42
2023/11/05 10:07:44;;;;;;;0.00;0.00;;;;;;;10.89;100.00;97431.63;5074195;28;20050;-42
2023/11/05 10:10:09;;;;;;;0.00;0.00;;;;;;;10.85;100.00;97432.41;5072752;28;20632;-42
2023/11/05 10:12:34;;;;;;;0.00;0.00;;;;;;;10.88;100.00;97416.56;5053924;28;20041;-42
2023/11/05 10:15:00;;;;;;;0.00;0.00;;;;;;;10.91;100.00;97417.91;5053749;28;20335;-42
2023/11/05 10:17:25;;;;;;;0.00;0.00;;;;;;;10.98;100.00;97407.69;5051264;28;20041;-41
2023/11/05 10:19:51;;;;;;;0.00;0.00;;;;;;;11.08;100.00;97423.81;5058480;28;20021;-41
2023/11/05 10:22:16;;;;;;;0.00;0.00;;;;;;;11.18;100.00;97418.44;5071693;28;20556;-42
2023/11/05 10:24:45;;;;;;;0.00;0.00;;;;;;;11.32;100.00;97423.28;5063240;28;20060;-42
2023/11/05 10:27:10;;;;;;;0.00;0.00;;;;;;;11.54;100.00;97426.50;5052245;28;20036;-41
2023/11/05 10:29:37;;;;;;;0.00;0.00;;;;;;;11.76;100.00;97430.75;5063892;28;20040;-42
2023/11/05 10:32:02;;;;;;;0.00;0.00;;;;;;;11.78;100.00;97434.00;5071639;28;20028;-42
2023/11/05 10:34:29;;;;;;;0.00;0.00;;;;;;;11.78;100.00;97450.16;5070231;28;20393;-42
2023/11/05 10:36:55;;;;;;;0.00;0.00;;;;;;;11.74;100.00;97446.38;5069872;28;20031;-43
2023/11/05 10:39:21;;;;;;;0.00;0.00;;;;;;;11.61;100.00;97453.13;5069431;28;20024;-42
2023/11/05 10:41:47;;;;;;;0.00;0.00;;;;;;;11.56;100.00;97466.63;5059167;28;20105;-43
2023/11/05 10:44:12;;;;;;;0.00;0.00;;;;;;;11.54;100.00;97477.66;5049868;28;20128;-42
2023/11/05 10:46:38;;;;;;;0.00;0.00;;;;;;;11.47;100.00;97476.31;5050899;28;20123;-42
2023/11/05 10:49:04;;;;;;;0.00;0.00;;;;;;;11.39;100.00;97485.75;5049894;28;20033;-41
2023/11/05 10:51:29;;;;;;;0.00;0.00;;;;;;;11.38;100.00;97494.91;5051133;28;20048;-41
2023/11/05 10:53:55;;;;;;;0.00;0.00;;;;;;;11.28;100.00;97502.97;5033420;28;20383;-42
2023/11/05 10:56:33;;;;;;;0.00;0.00;;;;;;;11.28;100.00;97514.56;5051175;28;20037;-42
2023/11/05 10:58:59;;;;;;;;;;;;;;;11.29;100.00;97518.03;5052919;28;20111;-41
2023/11/05 11:01:31;;;;;;;0.00;0.00;;;;;;;11.14;100.00;97519.66;5057984;28;20087;-42
2023/11/05 11:04:17;;;;;;;0.00;0.00;;;;;;;11.14;100.00;97529.63;5070761;28;20053;-42
2023/11/05 11:06:46;;;;;;;0.00;0.00;;;;;;;11.13;100.00;97525.28;5068685;28;20143;-41
2023/11/05 11:09:11;;;;;;;0.00;0.00;;;;;;;11.07;100.00;97535.25;5063426;28;20033;-42
2023/11/05 11:11:39;;;;;;;0.00;0.00;;;;;;;11.03;100.00;97538.72;5068868;28;20424;-41
2023/11/05 11:14:04;;;;;;;0.00;0.00;;;;;;;10.98;100.00;97543.03;5066115;28;20124;-42
2023/11/05 11:16:31;;;;;;;0.00;0.00;;;;;;;10.98;100.00;97550.31;5051389;28;20489;-43
2023/11/05 11:18:57;;;;;;;0.00;0.00;;;;;;;11.02;100.00;97550.56;5050114;28;20043;-42
2023/11/05 11:21:24;;;;;;;0.00;0.00;;;;;;;10.94;100.00;97562.66;5050014;28;20017;-42
2023/11/05 11:23:49;;;;;;;0.00;0.00;;;;;;;10.96;100.00;97566.69;5056806;28;20063;-42
2023/11/05 11:26:20;;;;;;;0.00;0.00;;;;;;;10.99;100.00;97581.50;5067641;28;20493;-42